sensor_id;sensor_type;location;lat;lon;timestamp;temperature;humidity
5899;DHT22;2975;50.956;6.962;2023-12-07T00:00:50;1.20;99.90
5899;DHT22;2975;50.956;6.962;2023-12-07T00:03:16;1.30;99.90
5899;DHT22;2975;50.956;6.962;2023-12-07T00:05:42;1.40;99.90
5899;DHT22;2975;50.956;6.962;2023-12-07T00:08:10;1.30;99.90
5899;DHT22;2975;50.956;6.962;2023-12-07T00:10:36;1.20;99.90
5899;DHT22;2975;50.956;6.962;2023-12-07T00:13:02;1.20;99.90
5899;DHT22;2975;50.956;6.962;2023-12-07T00:15:28;1.30;99.90
5899;DHT22;2975;50.956;6.962;2023-12-07T00:17:53;1.20;99.90
5899;DHT22;2975;50.956;6.962;2023-12-07T00:20:19;1.40;99.90
5899;DHT22;2975;50.956;6.962;2023-12-07T00:22:44;1.10;99.90
5899;DHT22;2975;50.956;6.962;2023-12-07T00:25:10;1.30;99.90
5899;DHT22;2975;50.956;6.962;2023-12-07T00:27:36;1.00;99.90
5899;DHT22;2975;50.956;6.962;2023-12-07T00:30:01;1.00;99.90
5899;DHT22;2975;50.956;6.962;2023-12-07T00:32:28;1.00;99.90
5899;DHT22;2975;50.956;6.962;2023-12-07T00:34:54;0.90;99.90
5899;DHT22;2975;50.956;6.962;2023-12-07T00:37:19;0.90;99.90
5899;DHT22;2975;50.956;6.962;2023-12-07T00:39:45;1.00;99.90
5899;DHT22;2975;50.956;6.962;2023-12-07T00:42:11;1.10;99.90
5899;DHT22;2975;50.956;6.962;2023-12-07T00:44:40;0.80;99.90
5899;DHT22;2975;50.956;6.962;2023-12-07T00:47:06;0.80;99.90
5899;DHT22;2975;50.956;6.962;2023-12-07T00:49:31;0.80;99.90
5899;DHT22;2975;50.956;6.962;2023-12-07T00:51:57;1.00;99.90
5899;DHT22;2975;50.956;6.962;2023-12-07T00:54:22;0.80;99.90
5899;DHT22;2975;50.956;6.962;2023-12-07T00:56:48;0.80;99.90
5899;DHT22;2975;50.956;6.962;2023-12-07T00:59:13;1.00;99.90
5899;DHT22;2975;50.956;6.962;2023-12-07T01:01:39;0.80;99.90
5899;DHT22;2975;50.956;6.962;2023-12-07T01:04:05;0.80;99.90
5899;DHT22;2975;50.956;6.962;2023-12-07T01:06:31;1.10;99.90
5899;DHT22;2975;50.956;6.962;2023-12-07T01:08:57;0.80;99.90
5899;DHT22;2975;50.956;6.962;2023-12-07T01:11:22;0.90;99.90
5899;DHT22;2975;50.956;6.962;2023-12-07T01:13:48;1.00;99.90
5899;DHT22;2975;50.956;6.962;2023-12-07T01:16:14;1.10;99.90
5899;DHT22;2975;50.956;6.962;2023-12-07T01:18:40;1.20;99.90
5899;DHT22;2975;50.956;6.962;2023-12-07T01:21:05;0.80;99.90
5899;DHT22;2975;50.956;6.962;2023-12-07T01:23:31;0.80;99.90
5899;DHT22;2975;50.956;6.962;2023-12-07T01:25:57;0.70;99.90
5899;DHT22;2975;50.956;6.962;2023-12-07T01:28:22;0.70;99.90
5899;DHT22;2975;50.956;6.962;2023-12-07T01:30:48;0.80;99.90
5899;DHT22;2975;50.956;6.962;2023-12-07T01:33:14;1.00;99.90
5899;DHT22;2975;50.956;6.962;2023-12-07T01:35:39;1.00;99.90
5899;DHT22;2975;50.956;6.962;2023-12-07T01:38:05;0.90;99.90
5899;DHT22;2975;50.956;6.962;2023-12-07T01:40:30;0.90;99.90
5899;DHT22;2975;50.956;6.962;2023-12-07T01:42:56;0.90;99.90
5899;DHT22;2975;50.956;6.962;2023-12-07T01:45:21;0.90;99.90
5899;DHT22;2975;50.956;6.962;2023-12-07T01:47:49;0.90;99.90
5899;DHT22;2975;50.956;6.962;2023-12-07T01:50:15;0.70;99.90
5899;DHT22;2975;50.956;6.962;2023-12-07T01:52:45;0.80;99.90
5899;DHT22;2975;50.956;6.962;2023-12-07T01:55:12;0.70;99.90
5899;DHT22;2975;50.956;6.962;2023-12-07T01:57:38;0.70;99.90
5899;DHT22;2975;50.956;6.962;2023-12-07T02:00:05;0.80;99.90
5899;DHT22;2975;50.956;6.962;2023-12-07T02:02:32;0.90;99.90
5899;DHT22;2975;50.956;6.962;2023-12-07T02:04:58;0.90;99.90
5899;DHT22;2975;50.956;6.962;2023-12-07T02:07:23;0.90;99.90
5899;DHT22;2975;50.956;6.962;2023-12-07T02:09:49;1.10;99.90
5899;DHT22;2975;50.956;6.962;2023-12-07T02:12:15;1.00;99.90
5899;DHT22;2975;50.956;6.962;2023-12-07T02:14:41;1.20;99.90
5899;DHT22;2975;50.956;6.962;2023-12-07T02:17:24;1.60;99.90
5899;DHT22;2975;50.956;6.962;2023-12-07T02:20:30;1.70;99.90
5899;DHT22;2975;50.956;6.962;2023-12-07T02:23:00;1.70;99.90
5899;DHT22;2975;50.956;6.962;2023-12-07T02:25:34;1.70;99.90
5899;DHT22;2975;50.956;6.962;2023-12-07T02:28:01;1.60;99.90
5899;DHT22;2975;50.956;6.962;2023-12-07T02:30:27;1.80;99.90
5899;DHT22;2975;50.956;6.962;2023-12-07T02:32:53;1.80;99.90
5899;DHT22;2975;50.956;6.962;2023-12-07T02:35:18;1.80;99.90
5899;DHT22;2975;50.956;6.962;2023-12-07T02:37:48;1.90;99.90
5899;DHT22;2975;50.956;6.962;2023-12-07T02:40:20;1.70;99.90
5899;DHT22;2975;50.956;6.962;2023-12-07T02:42:46;1.70;99.90
5899;DHT22;2975;50.956;6.962;2023-12-07T02:45:13;1.70;99.90
5899;DHT22;2975;50.956;6.962;2023-12-07T02:47:39;1.60;99.90
5899;DHT22;2975;50.956;6.962;2023-12-07T02:50:05;1.90;99.90
5899;DHT22;2975;50.956;6.962;2023-12-07T02:52:31;1.60;99.90
5899;DHT22;2975;50.956;6.962;2023-12-07T02:54:57;1.80;99.90
5899;DHT22;2975;50.956;6.962;2023-12-07T02:57:22;1.80;99.90
5899;DHT22;2975;50.956;6.962;2023-12-07T02:59:48;1.80;99.90
5899;DHT22;2975;50.956;6.962;2023-12-07T03:02:14;1.80;99.90
5899;DHT22;2975;50.956;6.962;2023-12-07T03:04:39;1.80;99.90
5899;DHT22;2975;50.956;6.962;2023-12-07T03:07:05;1.80;99.90
5899;DHT22;2975;50.956;6.962;2023-12-07T03:09:30;1.90;99.90
5899;DHT22;2975;50.956;6.962;2023-12-07T03:11:56;1.70;99.90
5899;DHT22;2975;50.956;6.962;2023-12-07T03:14:22;1.80;99.90
5899;DHT22;2975;50.956;6.962;2023-12-07T03:16:47;2.00;99.90
5899;DHT22;2975;50.956;6.962;2023-12-07T03:19:13;2.00;99.90
5899;DHT22;2975;50.956;6.962;2023-12-07T03:21:39;2.20;99.90
5899;DHT22;2975;50.956;6.962;2023-12-07T03:24:06;2.40;99.90
5899;DHT22;2975;50.956;6.962;2023-12-07T03:26:32;2.40;99.90
5899;DHT22;2975;50.956;6.962;2023-12-07T03:28:59;2.70;99.90
5899;DHT22;2975;50.956;6.962;2023-12-07T03:31:24;2.80;99.90
5899;DHT22;2975;50.956;6.962;2023-12-07T03:33:50;2.60;99.90
5899;DHT22;2975;50.956;6.962;2023-12-07T03:36:16;2.60;99.90
5899;DHT22;2975;50.956;6.962;2023-12-07T03:38:42;2.60;99.90
5899;DHT22;2975;50.956;6.962;2023-12-07T03:41:08;2.80;99.90
5899;DHT22;2975;50.956;6.962;2023-12-07T03:43:33;2.80;99.90
5899;DHT22;2975;50.956;6.962;2023-12-07T03:45:59;3.00;99.90
5899;DHT22;2975;50.956;6.962;2023-12-07T03:48:25;2.90;99.90
5899;DHT22;2975;50.956;6.962;2023-12-07T03:50:50;3.00;99.90
5899;DHT22;2975;50.956;6.962;2023-12-07T03:53:16;3.20;99.90
5899;DHT22;2975;50.956;6.962;2023-12-07T03:55:42;3.10;99.90
5899;DHT22;2975;50.956;6.962;2023-12-07T03:58:07;3.10;99.90
5899;DHT22;2975;50.956;6.962;2023-12-07T04:00:33;3.30;99.90
5899;DHT22;2975;50.956;6.962;2023-12-07T04:02:58;3.20;99.90
5899;DHT22;2975;50.956;6.962;2023-12-07T04:05:24;3.20;99.90
5899;DHT22;2975;50.956;6.962;2023-12-07T04:07:49;3.30;99.90
5899;DHT22;2975;50.956;6.962;2023-12-07T04:10:15;3.40;99.90
5899;DHT22;2975;50.956;6.962;2023-12-07T04:12:41;3.50;99.90
5899;DHT22;2975;50.956;6.962;2023-12-07T04:15:07;3.40;99.90
5899;DHT22;2975;50.956;6.962;2023-12-07T04:17:33;3.60;99.90
5899;DHT22;2975;50.956;6.962;2023-12-07T04:19:58;3.50;99.90
5899;DHT22;2975;50.956;6.962;2023-12-07T04:22:24;3.70;99.90
5899;DHT22;2975;50.956;6.962;2023-12-07T04:24:50;3.60;99.90
5899;DHT22;2975;50.956;6.962;2023-12-07T04:27:15;3.50;99.90
5899;DHT22;2975;50.956;6.962;2023-12-07T04:29:41;3.50;99.90
5899;DHT22;2975;50.956;6.962;2023-12-07T04:32:07;3.50;99.90
5899;DHT22;2975;50.956;6.962;2023-12-07T04:34:33;3.50;99.90
5899;DHT22;2975;50.956;6.962;2023-12-07T04:36:59;3.40;99.90
5899;DHT22;2975;50.956;6.962;2023-12-07T04:39:25;3.30;99.90
5899;DHT22;2975;50.956;6.962;2023-12-07T04:41:50;3.20;99.90
5899;DHT22;2975;50.956;6.962;2023-12-07T04:44:16;3.10;99.90
5899;DHT22;2975;50.956;6.962;2023-12-07T04:46:42;3.10;99.90
5899;DHT22;2975;50.956;6.962;2023-12-07T04:49:08;3.00;99.90
5899;DHT22;2975;50.956;6.962;2023-12-07T04:51:34;3.10;99.90
5899;DHT22;2975;50.956;6.962;2023-12-07T04:53:59;3.20;99.90
5899;DHT22;2975;50.956;6.962;2023-12-07T04:56:25;3.20;99.90
5899;DHT22;2975;50.956;6.962;2023-12-07T04:58:50;3.20;99.90
5899;DHT22;2975;50.956;6.962;2023-12-07T05:01:16;3.20;99.90
5899;DHT22;2975;50.956;6.962;2023-12-07T05:03:42;3.10;99.90
5899;DHT22;2975;50.956;6.962;2023-12-07T05:06:07;3.20;99.90
5899;DHT22;2975;50.956;6.962;2023-12-07T05:08:33;3.40;99.90
5899;DHT22;2975;50.956;6.962;2023-12-07T05:10:58;3.30;99.90
5899;DHT22;2975;50.956;6.962;2023-12-07T05:13:24;3.20;99.90
5899;DHT22;2975;50.956;6.962;2023-12-07T05:15:50;3.50;99.90
5899;DHT22;2975;50.956;6.962;2023-12-07T05:18:15;3.30;99.90
5899;DHT22;2975;50.956;6.962;2023-12-07T05:20:41;3.30;99.90
5899;DHT22;2975;50.956;6.962;2023-12-07T05:23:06;3.50;99.90
5899;DHT22;2975;50.956;6.962;2023-12-07T05:25:33;3.90;99.90
5899;DHT22;2975;50.956;6.962;2023-12-07T05:27:58;3.40;99.90
5899;DHT22;2975;50.956;6.962;2023-12-07T05:30:24;3.40;99.90
5899;DHT22;2975;50.956;6.962;2023-12-07T05:32:50;3.20;99.90
5899;DHT22;2975;50.956;6.962;2023-12-07T05:35:16;3.30;99.90
5899;DHT22;2975;50.956;6.962;2023-12-07T05:37:42;3.00;99.90
5899;DHT22;2975;50.956;6.962;2023-12-07T05:40:08;3.00;99.90
5899;DHT22;2975;50.956;6.962;2023-12-07T05:42:34;3.10;99.90
5899;DHT22;2975;50.956;6.962;2023-12-07T05:45:00;3.00;99.90
5899;DHT22;2975;50.956;6.962;2023-12-07T05:47:26;2.80;99.90
5899;DHT22;2975;50.956;6.962;2023-12-07T05:49:52;2.90;99.90
5899;DHT22;2975;50.956;6.962;2023-12-07T05:52:17;2.80;99.90
5899;DHT22;2975;50.956;6.962;2023-12-07T05:54:43;2.60;99.90
5899;DHT22;2975;50.956;6.962;2023-12-07T05:57:12;2.20;99.90
5899;DHT22;2975;50.956;6.962;2023-12-07T05:59:38;2.50;99.90
5899;DHT22;2975;50.956;6.962;2023-12-07T06:02:04;2.30;99.90
5899;DHT22;2975;50.956;6.962;2023-12-07T06:04:30;2.30;99.90
5899;DHT22;2975;50.956;6.962;2023-12-07T06:06:56;2.20;99.90
5899;DHT22;2975;50.956;6.962;2023-12-07T06:09:21;2.10;99.90
5899;DHT22;2975;50.956;6.962;2023-12-07T06:11:47;2.30;99.90
5899;DHT22;2975;50.956;6.962;2023-12-07T06:14:13;2.10;99.90
5899;DHT22;2975;50.956;6.962;2023-12-07T06:16:39;2.10;99.90
5899;DHT22;2975;50.956;6.962;2023-12-07T06:19:04;2.00;99.90
5899;DHT22;2975;50.956;6.962;2023-12-07T06:21:30;2.30;99.90
5899;DHT22;2975;50.956;6.962;2023-12-07T06:23:56;2.50;99.90
5899;DHT22;2975;50.956;6.962;2023-12-07T06:26:24;2.60;99.90
5899;DHT22;2975;50.956;6.962;2023-12-07T06:28:50;2.50;99.90
5899;DHT22;2975;50.956;6.962;2023-12-07T06:31:15;2.80;99.90
5899;DHT22;2975;50.956;6.962;2023-12-07T06:33:45;2.60;99.90
5899;DHT22;2975;50.956;6.962;2023-12-07T06:36:11;2.60;99.90
5899;DHT22;2975;50.956;6.962;2023-12-07T06:38:42;2.50;99.90
5899;DHT22;2975;50.956;6.962;2023-12-07T06:41:08;2.20;99.90
5899;DHT22;2975;50.956;6.962;2023-12-07T06:43:34;2.30;99.90
5899;DHT22;2975;50.956;6.962;2023-12-07T06:45:59;2.00;99.90
5899;DHT22;2975;50.956;6.962;2023-12-07T06:48:25;2.10;99.90
5899;DHT22;2975;50.956;6.962;2023-12-07T06:50:50;1.70;99.90
5899;DHT22;2975;50.956;6.962;2023-12-07T06:53:16;1.90;99.90
5899;DHT22;2975;50.956;6.962;2023-12-07T06:55:43;1.80;99.90
5899;DHT22;2975;50.956;6.962;2023-12-07T06:58:09;1.30;99.90
5899;DHT22;2975;50.956;6.962;2023-12-07T07:00:35;1.80;99.90
5899;DHT22;2975;50.956;6.962;2023-12-07T07:03:01;1.80;99.90
5899;DHT22;2975;50.956;6.962;2023-12-07T07:05:27;1.60;99.90
5899;DHT22;2975;50.956;6.962;2023-12-07T07:07:53;1.60;99.90
5899;DHT22;2975;50.956;6.962;2023-12-07T07:10:20;1.60;99.90
5899;DHT22;2975;50.956;6.962;2023-12-07T07:12:46;1.50;99.90
5899;DHT22;2975;50.956;6.962;2023-12-07T07:15:12;1.40;99.90
5899;DHT22;2975;50.956;6.962;2023-12-07T07:17:37;1.30;99.90
5899;DHT22;2975;50.956;6.962;2023-12-07T07:20:03;1.30;99.90
5899;DHT22;2975;50.956;6.962;2023-12-07T07:22:29;1.30;99.90
5899;DHT22;2975;50.956;6.962;2023-12-07T07:24:54;1.50;99.90
5899;DHT22;2975;50.956;6.962;2023-12-07T07:27:20;1.50;99.90
5899;DHT22;2975;50.956;6.962;2023-12-07T07:29:46;1.90;99.90
5899;DHT22;2975;50.956;6.962;2023-12-07T07:32:11;1.70;99.90
5899;DHT22;2975;50.956;6.962;2023-12-07T07:34:37;2.00;99.90
5899;DHT22;2975;50.956;6.962;2023-12-07T07:37:02;1.60;99.90
5899;DHT22;2975;50.956;6.962;2023-12-07T07:39:28;1.70;99.90
5899;DHT22;2975;50.956;6.962;2023-12-07T07:41:54;1.40;99.90
5899;DHT22;2975;50.956;6.962;2023-12-07T07:44:19;1.90;99.90
5899;DHT22;2975;50.956;6.962;2023-12-07T07:46:45;1.50;99.90
5899;DHT22;2975;50.956;6.962;2023-12-07T07:49:11;1.80;99.90
5899;DHT22;2975;50.956;6.962;2023-12-07T07:51:37;1.80;99.90
5899;DHT22;2975;50.956;6.962;2023-12-07T07:54:04;1.90;99.90
5899;DHT22;2975;50.956;6.962;2023-12-07T07:56:29;1.70;99.90
5899;DHT22;2975;50.956;6.962;2023-12-07T07:58:55;1.40;99.90
5899;DHT22;2975;50.956;6.962;2023-12-07T08:01:21;1.70;99.90
5899;DHT22;2975;50.956;6.962;2023-12-07T08:03:46;1.90;99.90
5899;DHT22;2975;50.956;6.962;2023-12-07T08:06:12;1.90;99.90
5899;DHT22;2975;50.956;6.962;2023-12-07T08:08:38;1.80;99.90
5899;DHT22;2975;50.956;6.962;2023-12-07T08:11:03;1.70;99.90
5899;DHT22;2975;50.956;6.962;2023-12-07T08:13:30;1.80;99.90
5899;DHT22;2975;50.956;6.962;2023-12-07T08:15:56;1.80;99.90
5899;DHT22;2975;50.956;6.962;2023-12-07T08:18:21;1.70;99.90
5899;DHT22;2975;50.956;6.962;2023-12-07T08:20:47;1.70;99.90
5899;DHT22;2975;50.956;6.962;2023-12-07T08:23:13;1.40;99.90
5899;DHT22;2975;50.956;6.962;2023-12-07T08:25:39;1.60;99.90
5899;DHT22;2975;50.956;6.962;2023-12-07T08:28:06;1.70;99.90
5899;DHT22;2975;50.956;6.962;2023-12-07T08:30:31;1.80;99.90
5899;DHT22;2975;50.956;6.962;2023-12-07T08:32:57;1.60;99.90
5899;DHT22;2975;50.956;6.962;2023-12-07T08:35:22;1.80;99.90
5899;DHT22;2975;50.956;6.962;2023-12-07T08:37:48;1.70;99.90
5899;DHT22;2975;50.956;6.962;2023-12-07T08:40:14;1.90;99.90
5899;DHT22;2975;50.956;6.962;2023-12-07T08:42:43;2.10;99.90
5899;DHT22;2975;50.956;6.962;2023-12-07T08:45:09;2.40;99.90
5899;DHT22;2975;50.956;6.962;2023-12-07T08:47:35;2.00;99.90
5899;DHT22;2975;50.956;6.962;2023-12-07T08:50:01;2.00;99.90
5899;DHT22;2975;50.956;6.962;2023-12-07T08:52:26;2.00;99.90
5899;DHT22;2975;50.956;6.962;2023-12-07T08:54:52;1.70;99.90
5899;DHT22;2975;50.956;6.962;2023-12-07T08:57:18;2.00;99.90
5899;DHT22;2975;50.956;6.962;2023-12-07T08:59:44;2.10;99.90
5899;DHT22;2975;50.956;6.962;2023-12-07T09:02:09;2.20;99.90
5899;DHT22;2975;50.956;6.962;2023-12-07T09:04:35;2.20;99.90
5899;DHT22;2975;50.956;6.962;2023-12-07T09:07:01;2.30;99.90
5899;DHT22;2975;50.956;6.962;2023-12-07T09:09:26;2.40;99.90
5899;DHT22;2975;50.956;6.962;2023-12-07T09:11:52;2.40;99.90
5899;DHT22;2975;50.956;6.962;2023-12-07T09:14:18;2.50;99.90
5899;DHT22;2975;50.956;6.962;2023-12-07T09:16:47;2.50;99.90
5899;DHT22;2975;50.956;6.962;2023-12-07T09:19:13;2.50;99.90
5899;DHT22;2975;50.956;6.962;2023-12-07T09:21:40;2.60;99.90
5899;DHT22;2975;50.956;6.962;2023-12-07T09:24:05;2.60;99.90
5899;DHT22;2975;50.956;6.962;2023-12-07T09:26:32;2.70;99.90
5899;DHT22;2975;50.956;6.962;2023-12-07T09:28:57;2.60;99.90
5899;DHT22;2975;50.956;6.962;2023-12-07T09:31:23;2.60;99.90
5899;DHT22;2975;50.956;6.962;2023-12-07T09:33:49;2.70;99.90
5899;DHT22;2975;50.956;6.962;2023-12-07T09:36:17;2.80;99.90
5899;DHT22;2975;50.956;6.962;2023-12-07T09:38:44;2.80;99.90
5899;DHT22;2975;50.956;6.962;2023-12-07T09:41:10;2.70;99.90
5899;DHT22;2975;50.956;6.962;2023-12-07T09:43:36;2.90;99.90
5899;DHT22;2975;50.956;6.962;2023-12-07T09:46:02;2.90;99.90
5899;DHT22;2975;50.956;6.962;2023-12-07T09:48:28;2.80;99.90
5899;DHT22;2975;50.956;6.962;2023-12-07T09:50:56;2.90;99.90
5899;DHT22;2975;50.956;6.962;2023-12-07T09:53:22;2.90;99.90
5899;DHT22;2975;50.956;6.962;2023-12-07T09:55:47;2.90;99.90
5899;DHT22;2975;50.956;6.962;2023-12-07T09:58:13;3.00;99.90
5899;DHT22;2975;50.956;6.962;2023-12-07T10:00:39;3.10;99.90
5899;DHT22;2975;50.956;6.962;2023-12-07T10:03:05;3.20;99.90
5899;DHT22;2975;50.956;6.962;2023-12-07T10:05:43;3.20;99.90
5899;DHT22;2975;50.956;6.962;2023-12-07T10:08:26;3.30;99.90
5899;DHT22;2975;50.956;6.962;2023-12-07T10:11:09;3.30;99.90
5899;DHT22;2975;50.956;6.962;2023-12-07T10:13:36;3.20;99.90
5899;DHT22;2975;50.956;6.962;2023-12-07T10:16:20;3.30;99.90
5899;DHT22;2975;50.956;6.962;2023-12-07T10:18:45;3.50;99.90
5899;DHT22;2975;50.956;6.962;2023-12-07T10:21:12;3.40;99.90
5899;DHT22;2975;50.956;6.962;2023-12-07T10:23:38;3.60;99.90
5899;DHT22;2975;50.956;6.962;2023-12-07T10:26:07;3.50;99.90
5899;DHT22;2975;50.956;6.962;2023-12-07T10:28:37;3.60;99.90
5899;DHT22;2975;50.956;6.962;2023-12-07T10:31:02;3.50;99.90
5899;DHT22;2975;50.956;6.962;2023-12-07T10:33:28;3.50;99.90
5899;DHT22;2975;50.956;6.962;2023-12-07T10:35:54;3.50;99.90
5899;DHT22;2975;50.956;6.962;2023-12-07T10:38:20;3.50;99.90
5899;DHT22;2975;50.956;6.962;2023-12-07T10:40:46;3.60;99.90
5899;DHT22;2975;50.956;6.962;2023-12-07T10:43:12;4.00;99.90
5899;DHT22;2975;50.956;6.962;2023-12-07T10:45:40;4.20;99.90
5899;DHT22;2975;50.956;6.962;2023-12-07T10:48:08;4.30;99.90
5899;DHT22;2975;50.956;6.962;2023-12-07T10:50:41;4.40;99.90
5899;DHT22;2975;50.956;6.962;2023-12-07T10:53:26;4.70;99.90
5899;DHT22;2975;50.956;6.962;2023-12-07T10:55:55;4.60;99.90
5899;DHT22;2975;50.956;6.962;2023-12-07T10:58:22;4.70;99.90
5899;DHT22;2975;50.956;6.962;2023-12-07T11:00:54;4.70;99.90
5899;DHT22;2975;50.956;6.962;2023-12-07T11:03:21;4.90;99.90
5899;DHT22;2975;50.956;6.962;2023-12-07T11:05:50;4.90;99.90
5899;DHT22;2975;50.956;6.962;2023-12-07T11:13:38;5.00;99.90
5899;DHT22;2975;50.956;6.962;2023-12-07T11:16:04;5.00;99.90
5899;DHT22;2975;50.956;6.962;2023-12-07T11:18:30;5.00;99.90
5899;DHT22;2975;50.956;6.962;2023-12-07T11:20:56;5.10;99.90
5899;DHT22;2975;50.956;6.962;2023-12-07T11:23:22;5.00;99.90
5899;DHT22;2975;50.956;6.962;2023-12-07T11:25:50;5.00;99.90
5899;DHT22;2975;50.956;6.962;2023-12-07T11:28:17;4.90;99.90
5899;DHT22;2975;50.956;6.962;2023-12-07T11:30:44;5.00;99.90
5899;DHT22;2975;50.956;6.962;2023-12-07T11:33:10;5.10;99.90
5899;DHT22;2975;50.956;6.962;2023-12-07T11:36:05;5.00;99.90
5899;DHT22;2975;50.956;6.962;2023-12-07T11:38:32;5.00;99.90
5899;DHT22;2975;50.956;6.962;2023-12-07T11:40:57;5.00;99.90
5899;DHT22;2975;50.956;6.962;2023-12-07T11:46:01;4.90;99.90
5899;DHT22;2975;50.956;6.962;2023-12-07T11:48:27;4.80;99.90
5899;DHT22;2975;50.956;6.962;2023-12-07T11:53:30;4.70;99.90
5899;DHT22;2975;50.956;6.962;2023-12-07T11:55:57;4.70;99.90
5899;DHT22;2975;50.956;6.962;2023-12-07T11:58:28;4.70;99.90
5899;DHT22;2975;50.956;6.962;2023-12-07T12:00:54;4.60;99.90
5899;DHT22;2975;50.956;6.962;2023-12-07T12:03:22;4.50;99.90
5899;DHT22;2975;50.956;6.962;2023-12-07T12:05:48;4.50;99.90
5899;DHT22;2975;50.956;6.962;2023-12-07T12:08:13;4.50;99.90
5899;DHT22;2975;50.956;6.962;2023-12-07T12:10:40;4.40;99.90
5899;DHT22;2975;50.956;6.962;2023-12-07T12:13:06;4.50;99.90
5899;DHT22;2975;50.956;6.962;2023-12-07T12:15:32;4.40;99.90
5899;DHT22;2975;50.956;6.962;2023-12-07T12:17:58;4.30;99.90
5899;DHT22;2975;50.956;6.962;2023-12-07T12:20:25;4.20;99.90
5899;DHT22;2975;50.956;6.962;2023-12-07T12:22:51;4.20;99.90
5899;DHT22;2975;50.956;6.962;2023-12-07T12:25:24;4.10;99.90
5899;DHT22;2975;50.956;6.962;2023-12-07T12:27:55;4.10;99.90
5899;DHT22;2975;50.956;6.962;2023-12-07T12:30:21;4.00;99.90
5899;DHT22;2975;50.956;6.962;2023-12-07T12:32:51;4.00;99.90
5899;DHT22;2975;50.956;6.962;2023-12-07T12:35:17;4.00;99.90
5899;DHT22;2975;50.956;6.962;2023-12-07T12:37:46;4.20;99.90
5899;DHT22;2975;50.956;6.962;2023-12-07T12:40:13;4.20;99.90
5899;DHT22;2975;50.956;6.962;2023-12-07T12:42:47;4.20;99.90
5899;DHT22;2975;50.956;6.962;2023-12-07T12:45:14;4.10;99.90
5899;DHT22;2975;50.956;6.962;2023-12-07T12:47:41;4.20;99.90
5899;DHT22;2975;50.956;6.962;2023-12-07T12:50:07;4.40;99.90
5899;DHT22;2975;50.956;6.962;2023-12-07T12:52:33;4.50;99.90
5899;DHT22;2975;50.956;6.962;2023-12-07T12:54:59;4.50;99.90
5899;DHT22;2975;50.956;6.962;2023-12-07T12:57:25;4.50;99.90
5899;DHT22;2975;50.956;6.962;2023-12-07T12:59:51;4.60;99.90
5899;DHT22;2975;50.956;6.962;2023-12-07T13:02:17;4.50;99.90
5899;DHT22;2975;50.956;6.962;2023-12-07T13:04:43;4.50;99.90
5899;DHT22;2975;50.956;6.962;2023-12-07T13:07:11;4.50;99.90
5899;DHT22;2975;50.956;6.962;2023-12-07T13:09:38;5.20;99.90
5899;DHT22;2975;50.956;6.962;2023-12-07T13:12:03;4.60;99.90
5899;DHT22;2975;50.956;6.962;2023-12-07T13:14:29;4.60;99.90
5899;DHT22;2975;50.956;6.962;2023-12-07T13:16:55;4.50;99.90
5899;DHT22;2975;50.956;6.962;2023-12-07T13:19:20;4.50;99.90
5899;DHT22;2975;50.956;6.962;2023-12-07T13:21:46;4.50;99.90
5899;DHT22;2975;50.956;6.962;2023-12-07T13:24:12;4.50;99.90
5899;DHT22;2975;50.956;6.962;2023-12-07T13:26:38;4.50;99.90
5899;DHT22;2975;50.956;6.962;2023-12-07T13:29:04;4.50;99.90
5899;DHT22;2975;50.956;6.962;2023-12-07T13:31:30;4.50;99.90
5899;DHT22;2975;50.956;6.962;2023-12-07T13:33:56;4.40;99.90
5899;DHT22;2975;50.956;6.962;2023-12-07T13:36:22;4.50;99.90
5899;DHT22;2975;50.956;6.962;2023-12-07T13:38:49;4.50;99.90
5899;DHT22;2975;50.956;6.962;2023-12-07T13:41:15;4.40;99.90
5899;DHT22;2975;50.956;6.962;2023-12-07T13:43:40;4.30;99.90
5899;DHT22;2975;50.956;6.962;2023-12-07T13:46:07;4.40;99.90
5899;DHT22;2975;50.956;6.962;2023-12-07T13:48:33;4.40;99.90
5899;DHT22;2975;50.956;6.962;2023-12-07T13:50:59;4.50;99.90
5899;DHT22;2975;50.956;6.962;2023-12-07T13:53:24;4.50;99.90
5899;DHT22;2975;50.956;6.962;2023-12-07T13:55:50;4.60;99.90
5899;DHT22;2975;50.956;6.962;2023-12-07T13:58:17;4.60;99.90
5899;DHT22;2975;50.956;6.962;2023-12-07T14:00:42;4.60;99.90
5899;DHT22;2975;50.956;6.962;2023-12-07T14:03:11;4.60;99.90
5899;DHT22;2975;50.956;6.962;2023-12-07T14:05:38;4.60;99.90
5899;DHT22;2975;50.956;6.962;2023-12-07T14:08:05;4.60;99.90
5899;DHT22;2975;50.956;6.962;2023-12-07T14:10:31;4.60;99.90
5899;DHT22;2975;50.956;6.962;2023-12-07T14:12:56;4.50;99.90
5899;DHT22;2975;50.956;6.962;2023-12-07T14:15:22;4.50;99.90
5899;DHT22;2975;50.956;6.962;2023-12-07T14:17:48;4.50;99.90
5899;DHT22;2975;50.956;6.962;2023-12-07T14:20:13;4.40;99.90
5899;DHT22;2975;50.956;6.962;2023-12-07T14:22:40;4.30;99.90
5899;DHT22;2975;50.956;6.962;2023-12-07T14:25:06;4.20;99.90
5899;DHT22;2975;50.956;6.962;2023-12-07T14:27:32;4.10;99.90
5899;DHT22;2975;50.956;6.962;2023-12-07T14:29:57;4.00;99.90
5899;DHT22;2975;50.956;6.962;2023-12-07T14:32:23;3.90;99.90
5899;DHT22;2975;50.956;6.962;2023-12-07T14:34:49;4.00;99.90
5899;DHT22;2975;50.956;6.962;2023-12-07T14:37:15;3.90;99.90
5899;DHT22;2975;50.956;6.962;2023-12-07T14:39:40;3.90;99.90
5899;DHT22;2975;50.956;6.962;2023-12-07T14:42:06;3.80;99.90
5899;DHT22;2975;50.956;6.962;2023-12-07T14:44:32;3.80;99.90
5899;DHT22;2975;50.956;6.962;2023-12-07T14:46:58;4.00;99.90
5899;DHT22;2975;50.956;6.962;2023-12-07T14:49:24;3.90;99.90
5899;DHT22;2975;50.956;6.962;2023-12-07T14:51:51;3.90;99.90
5899;DHT22;2975;50.956;6.962;2023-12-07T14:54:17;3.80;99.90
5899;DHT22;2975;50.956;6.962;2023-12-07T14:56:43;3.70;99.90
5899;DHT22;2975;50.956;6.962;2023-12-07T14:59:12;3.70;99.90
5899;DHT22;2975;50.956;6.962;2023-12-07T15:01:38;3.60;99.90
5899;DHT22;2975;50.956;6.962;2023-12-07T15:04:04;3.60;99.90
5899;DHT22;2975;50.956;6.962;2023-12-07T15:06:31;3.70;99.90
5899;DHT22;2975;50.956;6.962;2023-12-07T15:08:57;3.60;99.90
5899;DHT22;2975;50.956;6.962;2023-12-07T15:11:23;3.60;99.90
5899;DHT22;2975;50.956;6.962;2023-12-07T15:13:49;3.50;99.90
5899;DHT22;2975;50.956;6.962;2023-12-07T15:16:15;3.30;99.90
5899;DHT22;2975;50.956;6.962;2023-12-07T15:18:41;3.30;99.90
5899;DHT22;2975;50.956;6.962;2023-12-07T15:21:11;3.30;99.90
5899;DHT22;2975;50.956;6.962;2023-12-07T15:23:38;3.30;99.90
5899;DHT22;2975;50.956;6.962;2023-12-07T15:26:04;3.20;99.90
5899;DHT22;2975;50.956;6.962;2023-12-07T15:28:30;3.20;99.90
5899;DHT22;2975;50.956;6.962;2023-12-07T15:30:55;3.10;99.90
5899;DHT22;2975;50.956;6.962;2023-12-07T15:33:21;3.10;99.90
5899;DHT22;2975;50.956;6.962;2023-12-07T15:35:47;3.00;99.90
5899;DHT22;2975;50.956;6.962;2023-12-07T15:38:12;3.00;99.90
5899;DHT22;2975;50.956;6.962;2023-12-07T15:40:39;3.00;99.90
5899;DHT22;2975;50.956;6.962;2023-12-07T15:43:05;3.00;99.90
5899;DHT22;2975;50.956;6.962;2023-12-07T15:45:30;3.10;99.90
5899;DHT22;2975;50.956;6.962;2023-12-07T15:47:56;3.10;99.90
5899;DHT22;2975;50.956;6.962;2023-12-07T15:50:22;3.10;99.90
5899;DHT22;2975;50.956;6.962;2023-12-07T15:52:47;3.00;99.90
5899;DHT22;2975;50.956;6.962;2023-12-07T15:55:13;3.10;99.90
5899;DHT22;2975;50.956;6.962;2023-12-07T15:57:40;2.90;99.90
5899;DHT22;2975;50.956;6.962;2023-12-07T16:00:06;3.00;99.90
5899;DHT22;2975;50.956;6.962;2023-12-07T16:02:32;3.00;99.90
5899;DHT22;2975;50.956;6.962;2023-12-07T16:04:58;3.00;99.90
5899;DHT22;2975;50.956;6.962;2023-12-07T16:07:23;2.90;99.90
5899;DHT22;2975;50.956;6.962;2023-12-07T16:09:49;3.00;99.90
5899;DHT22;2975;50.956;6.962;2023-12-07T16:12:14;3.00;99.90
5899;DHT22;2975;50.956;6.962;2023-12-07T16:14:40;3.00;99.90
5899;DHT22;2975;50.956;6.962;2023-12-07T16:17:07;2.90;99.90
5899;DHT22;2975;50.956;6.962;2023-12-07T16:19:33;3.00;99.90
5899;DHT22;2975;50.956;6.962;2023-12-07T16:21:58;3.10;99.90